Tuesday, December 18, 2018, 12:16 PM EST
Back to Local

KACY, Atlantic City International

Location: Absecon, NJ, United States Lat: 39.467
Local Time: 12:16 PM EST (17:16 GMT) Lon: -74.583
Time Zone: US/Eastern Elev: 75 ft

Show me the last for .
Show Decoded

2018-12-18 11:54 METAR KACY 181654Z 32017G25KT 10SM CLR 06/M07 A3006 RMK AO2 PK WND 34026/1640
                 SLP181 T00561072 =
2018-12-18 10:54 METAR KACY 181554Z 32016G23KT 10SM CLR 05/M07 A3007 RMK AO2 PK WND 30028/1513
                 SLP182 T00501067 =
2018-12-18 09:54 METAR KACY 181454Z 33016G25KT 10SM CLR 04/M06 A3006 RMK AO2 SLP181 T00391061
                 51028 =
2018-12-18 08:54 METAR KACY 181354Z 31010G19KT 10SM CLR 03/M06 A3005 RMK AO2 SLP177 T00331061 =
2018-12-18 07:54 METAR KACY 181254Z 31009KT 10SM CLR 02/M06 A3002 RMK AO2 SLP166 T00171061 =
2018-12-18 06:54 METAR KACY 181154Z 31012G23KT 10SM CLR 02/M07 A2998 RMK AO2 SLP153 T00171067
                 10056 20017 52025 =
2018-12-18 05:54 METAR KACY 181054Z 31010KT 10SM CLR 02/M06 A2996 RMK AO2 SLP145 T00221056 =
2018-12-18 04:54 METAR KACY 180954Z 30012G18KT 10SM CLR 03/M06 A2993 RMK AO2 PK WND 31027/0903
                 SLP136 T00281061 =
2018-12-18 03:54 METAR KACY 180854Z 31017G24KT 10SM BKN055 03/M05 A2991 RMK AO2 PK WND 30027/0837
                 SLP128 T00331050 52018 =
2018-12-18 02:54 METAR KACY 180754Z 30014G25KT 10SM BKN055 04/M05 A2989 RMK AO2 PK WND 31026/0743
                 SLP122 T00441050 =
2018-12-18 01:54 METAR KACY 180654Z 31021G33KT 10SM BKN055 05/M05 A2987 RMK AO2 PK WND 31033/0652
                 SLP116 T00501050 =
2018-12-18 00:54 METAR KACY 180554Z 30013G24KT 10SM OVC055 05/M02 A2985 RMK AO2 SLP110 T00501022
                 10072 20050 58001 =
2018-12-17 23:54 METAR KACY 180454Z 27011KT 10SM OVC055 06/M03 A2986 RMK AO2 SLP111 T00561028
                 401000028 =
2018-12-17 22:54 METAR KACY 180354Z 29013G20KT 10SM OVC055 06/M03 A2986 RMK AO2 PK WND 30026/0328
                 SLP111 T00561028 =
2018-12-17 21:54 METAR KACY 180254Z 30015KT 10SM OVC050 06/M03 A2986 RMK AO2 PK WND 32027/0218
                 SLP111 T00611028 51009 =
2018-12-17 20:54 METAR KACY 180154Z 31010KT 10SM OVC050 06/M02 A2985 RMK AO2 SLP110 T00611022 =
2018-12-17 19:54 METAR KACY 180054Z 33016KT 10SM OVC050 07/M02 A2985 RMK AO2 PK WND 29027/0034
                 SLP108 T00671022 =
2018-12-17 18:54 METAR KACY 172354Z 30018G26KT 10SM OVC055 07/M02 A2983 RMK AO2 PK WND 29026/2352
                 SLP102 T00721022 10100 20061 51021 =
2018-12-17 17:54 METAR KACY 172254Z 31013G20KT 10SM CLR 06/M02 A2982 RMK AO2 SLP097 T00611022 =
2018-12-17 16:54 METAR KACY 172154Z AUTO 31012KT 10SM CLR 07/00 A2979 RMK AO2 SLP088 T00670000 =
2018-12-17 15:54 METAR KACY 172054Z 31009KT 10SM BKN055 08/01 A2977 RMK AO2 PK WND 30028/2001
                 SLP082 T00780006 53015 =
2018-12-17 14:54 METAR KACY 171954Z 29022G30KT 10SM BKN045 09/01 A2975 RMK AO2 PK WND 29034/1909
                 SLP073 T00890006 =
2018-12-17 13:54 METAR KACY 171854Z 30024G33KT 10SM SCT040 10/02 A2972 RMK AO2 PK WND 30033/1853
                 SLP066 T01000017 =
2018-12-17 12:54 METAR KACY 171754Z 28013G24KT 10SM CLR 10/03 A2973 RMK AO2 PK WND 28027/1715
                 SLP066 T01000028 10100 20028 58030 =

Support USWX by starting your Amazon purchase here.